Search for airport 
image banner adimage banner adimage banner ad
image banner ad

PA73 - D Evans Farm

Located in East Prospect, United States

ICAO - PA73, IATA -

Data provided by Airmate  

General information

Coordinates: N39°58'46" W76°32'10"
Elevation is 525 feet MSL.
Magnetic variation is -10° East
View others Airports in Pennsylvania

Operational data

Special qualification required
Current time UTC:
Current local time:
Weather at : KLNS - Lancaster ( 26 km )
METAR: KLNS 071353Z 10006KT 10SM SCT110 14/02 A2990 RMK AO2 SLP126 T01440022
TAF: KLNS 071127Z 0712/0812 10006KT P6SM SCT100 BKN250 FM071500 14007KT P6SM OVC100 FM071900 VRB05KT 6SM -RA OVC050 FM072300 31005KT 5SM -RA BR OVC035 FM080700 26006KT P6SM BKN035
View NOTAMs / SUP AIP / TFR affecting this airport [VIEW]
Communications frequencies: [VIEW]

Runways:

RWY identifierQFULength (ft)Width (ft)SurfaceLDA (ft)
N1400100GRASS
S1400100GRASS

Airport contact information

Address: East Prospect United States

Satellite view of PA73